createdAt,value
2023-07-21T00:00:54.154Z,0.75
2023-07-21T00:08:15.548Z,0.57
2023-07-21T00:10:48.999Z,0.35
2023-07-21T02:04:52.405Z,0.20
2023-07-21T02:07:25.700Z,0.30
2023-07-21T02:25:05.362Z,0.70
2023-07-21T02:27:39.901Z,0.20
2023-07-21T02:30:13.227Z,0.30
2023-07-21T02:32:46.329Z,0.75
2023-07-21T02:35:18.945Z,0.30
2023-07-21T02:37:52.826Z,0.40
2023-07-21T02:40:27.532Z,0.43
2023-07-21T02:43:01.228Z,0.55
2023-07-21T02:55:31.329Z,0.47
2023-07-21T02:58:04.578Z,0.60
2023-07-21T03:00:41.882Z,0.60
2023-07-21T03:03:26.877Z,0.60
2023-07-21T03:06:08.396Z,0.30
2023-07-21T03:08:42.110Z,0.23
2023-07-21T03:11:19.308Z,0.70
2023-07-21T03:14:08.403Z,0.25
2023-07-21T03:16:42.390Z,0.85
2023-07-21T03:19:15.897Z,0.30
2023-07-21T03:21:51.369Z,0.50
2023-07-21T03:24:24.332Z,0.70
2023-07-21T03:26:58.615Z,0.60
2023-07-21T03:29:32.975Z,1.00
2023-07-21T03:32:06.545Z,0.57
2023-07-21T03:34:40.248Z,0.70
2023-07-21T03:37:14.853Z,0.82
2023-07-21T03:39:48.337Z,0.57
2023-07-21T03:42:23.495Z,0.52
2023-07-21T03:44:57.149Z,1.00
2023-07-21T03:47:32.056Z,0.67
2023-07-21T03:50:09.648Z,0.60
2023-07-21T03:52:43.435Z,0.45
2023-07-21T03:55:20.608Z,0.80
2023-07-21T03:57:55.625Z,0.85
2023-07-21T04:00:30.864Z,0.60
2023-07-21T04:03:03.562Z,0.50
2023-07-21T04:05:37.477Z,0.88
2023-07-21T04:08:10.444Z,0.60
2023-07-21T04:10:43.888Z,0.75
2023-07-21T04:13:20.086Z,0.43
2023-07-21T04:15:52.938Z,0.50
2023-07-21T04:18:26.890Z,0.65
2023-07-21T04:20:59.526Z,0.30
2023-07-21T04:23:32.896Z,0.47
2023-07-21T04:26:08.165Z,0.60
2023-07-21T04:28:43.213Z,0.20
2023-07-21T04:31:18.152Z,0.75
2023-07-21T04:34:04.012Z,0.50
2023-07-21T04:36:39.063Z,0.50
2023-07-21T04:39:26.310Z,1.07
2023-07-21T04:41:59.508Z,0.90
2023-07-21T04:44:34.738Z,0.80
2023-07-21T04:47:08.223Z,1.20
2023-07-21T04:49:49.953Z,1.10
2023-07-21T04:52:23.416Z,1.40
2023-07-21T04:54:56.803Z,1.10
2023-07-21T04:57:29.720Z,0.52
2023-07-21T05:00:13.103Z,0.82
2023-07-21T05:02:46.708Z,0.20
2023-07-21T05:05:19.691Z,0.60
2023-07-21T05:07:57.720Z,0.60
2023-07-21T05:10:31.461Z,0.55
2023-07-21T05:13:07.439Z,0.60
2023-07-21T05:15:57.902Z,0.57
2023-07-21T05:18:42.874Z,1.03
2023-07-21T05:21:51.063Z,0.45
2023-07-21T05:24:43.336Z,0.63
2023-07-21T05:27:18.614Z,0.45
2023-07-21T05:29:56.837Z,0.80
2023-07-21T05:32:31.892Z,1.20
2023-07-21T05:35:15.310Z,1.17
2023-07-21T05:37:58.212Z,0.82
2023-07-21T05:40:31.909Z,1.10
2023-07-21T05:43:06.553Z,1.15
2023-07-21T05:45:41.059Z,1.10
2023-07-21T05:48:18.199Z,0.85
2023-07-21T05:50:54.118Z,0.60
2023-07-21T05:53:27.085Z,0.65
2023-07-21T05:56:00.669Z,0.77
2023-07-21T05:58:51.143Z,0.47
2023-07-21T06:01:24.954Z,0.68
2023-07-21T06:03:59.128Z,0.50
2023-07-21T06:06:32.748Z,0.70
2023-07-21T06:09:44.439Z,0.70
2023-07-21T06:12:37.327Z,0.80
2023-07-21T06:15:35.597Z,0.60
2023-07-21T06:18:12.519Z,0.65
2023-07-21T06:20:47.115Z,0.63
2023-07-21T06:23:20.410Z,0.65
2023-07-21T06:25:55.154Z,0.63
2023-07-21T06:28:28.188Z,0.47
2023-07-21T06:31:01.138Z,0.40
2023-07-21T06:33:53.024Z,0.50
2023-07-21T06:36:44.596Z,0.80
2023-07-21T06:39:40.909Z,0.60
2023-07-21T06:42:27.314Z,0.47
2023-07-21T06:45:19.452Z,0.60
2023-07-21T06:48:03.722Z,0.40
2023-07-21T06:50:58.448Z,0.60
2023-07-21T06:53:32.937Z,0.40
2023-07-21T06:56:06.079Z,0.40
2023-07-21T06:58:38.902Z,0.50
2023-07-21T07:01:12.288Z,0.40
2023-07-21T07:03:48.086Z,0.60
2023-07-21T07:06:21.069Z,0.90
2023-07-21T07:08:55.945Z,4.93
2023-07-21T07:11:28.962Z,1.65
2023-07-21T07:14:02.507Z,0.50
2023-07-21T07:16:38.302Z,0.70
2023-07-21T07:19:11.479Z,0.73
2023-07-21T07:21:44.136Z,0.40
2023-07-21T07:24:22.182Z,0.60
2023-07-21T07:26:55.477Z,1.00
2023-07-21T07:29:28.689Z,0.57
2023-07-21T07:32:01.517Z,0.40
2023-07-21T07:34:34.659Z,0.70
2023-07-21T07:37:08.033Z,0.55
2023-07-21T07:39:42.689Z,0.57
2023-07-21T07:42:15.246Z,0.60
2023-07-21T07:44:49.570Z,0.90
2023-07-21T07:47:22.165Z,0.40
2023-07-21T07:49:55.406Z,0.50
2023-07-21T07:52:28.021Z,0.40
2023-07-21T07:55:02.427Z,0.40
2023-07-21T07:57:38.027Z,0.43
2023-07-21T08:00:15.707Z,0.50
2023-07-21T08:02:49.039Z,0.30
2023-07-21T08:05:22.546Z,0.32
2023-07-21T08:07:55.514Z,0.43
2023-07-21T08:10:30.557Z,0.33
2023-07-21T08:13:07.809Z,0.43
2023-07-21T08:15:41.760Z,0.40
2023-07-21T08:18:14.902Z,0.32
2023-07-21T08:20:51.290Z,0.75
2023-07-21T08:23:30.151Z,0.50
2023-07-21T08:26:05.077Z,0.68
2023-07-21T08:28:37.643Z,0.40
2023-07-21T08:31:11.183Z,0.70
2023-07-21T08:33:43.715Z,0.57
2023-07-21T08:36:16.623Z,0.40
2023-07-21T08:38:51.394Z,0.50
2023-07-21T08:41:27.028Z,0.88
2023-07-21T08:44:02.376Z,0.88
2023-07-21T08:46:35.607Z,0.47
2023-07-21T08:49:09.531Z,0.33
2023-07-21T08:51:42.105Z,0.32
2023-07-21T08:54:15.151Z,0.50
2023-07-21T08:56:49.295Z,0.93
2023-07-21T08:59:22.708Z,0.30
2023-07-21T09:01:55.729Z,0.40
2023-07-21T09:04:29.002Z,0.57
2023-07-21T09:07:03.903Z,0.50
2023-07-21T09:09:36.570Z,0.30
2023-07-21T09:12:12.976Z,0.52
2023-07-21T09:14:46.598Z,0.77
2023-07-21T09:17:19.574Z,0.40
2023-07-21T09:19:56.882Z,0.40
2023-07-21T09:22:29.724Z,0.85
2023-07-21T09:25:03.158Z,0.60
2023-07-21T09:27:41.304Z,0.50
2023-07-21T09:30:13.909Z,0.65
2023-07-21T09:32:46.856Z,0.40
2023-07-21T09:35:19.897Z,0.50
2023-07-21T09:37:53.829Z,0.20
2023-07-21T09:40:29.968Z,0.40
2023-07-21T09:43:04.635Z,0.40
2023-07-21T09:45:37.934Z,0.50
2023-07-21T09:48:12.063Z,0.30
2023-07-21T09:50:46.125Z,0.30
2023-07-21T09:53:22.896Z,0.23
2023-07-21T09:55:57.650Z,0.40
2023-07-21T09:58:35.266Z,0.28
2023-07-21T10:01:11.203Z,0.77
2023-07-21T10:03:45.720Z,0.30
2023-07-21T10:06:19.233Z,0.40
2023-07-21T10:08:53.221Z,0.57
2023-07-21T10:11:26.665Z,0.30
2023-07-21T10:14:00.907Z,0.28
2023-07-21T10:16:34.071Z,0.30
2023-07-21T10:19:12.129Z,0.40
2023-07-21T10:21:52.544Z,1.92
2023-07-21T10:24:28.961Z,1.00
2023-07-21T10:27:04.221Z,0.22
2023-07-21T10:29:39.480Z,0.45
2023-07-21T10:32:12.900Z,0.30
2023-07-21T10:34:45.815Z,0.32
2023-07-21T10:37:19.024Z,0.35
2023-07-21T10:39:55.606Z,0.38
2023-07-21T10:42:28.285Z,0.40
2023-07-21T10:45:09.433Z,0.23
2023-07-21T10:47:42.777Z,0.63
2023-07-21T10:50:15.624Z,0.30
2023-07-21T10:52:49.128Z,0.60
2023-07-21T10:55:22.156Z,0.25
2023-07-21T10:57:54.920Z,0.40
2023-07-21T11:00:30.487Z,1.23
2023-07-21T11:03:03.571Z,1.10
2023-07-21T11:05:37.689Z,0.40
2023-07-21T11:08:14.496Z,0.30
2023-07-21T11:10:47.692Z,0.30
2023-07-21T11:13:21.012Z,0.22
2023-07-21T11:15:56.403Z,0.60
2023-07-21T11:18:29.904Z,0.30
2023-07-21T11:21:02.809Z,0.40
2023-07-21T11:23:35.749Z,0.40
2023-07-21T11:26:11.758Z,0.45
2023-07-21T11:28:44.921Z,0.40
2023-07-21T11:31:20.189Z,0.40
2023-07-21T11:33:53.069Z,0.50
2023-07-21T11:36:29.179Z,0.50
2023-07-21T11:39:05.839Z,0.40
2023-07-21T11:41:50.077Z,0.40
2023-07-21T11:44:26.743Z,0.50
2023-07-21T11:47:08.117Z,0.60
2023-07-21T11:49:42.160Z,0.30
2023-07-21T11:52:27.020Z,0.90
2023-07-21T11:55:01.937Z,0.50
2023-07-21T11:57:36.172Z,0.30
2023-07-21T12:00:13.157Z,0.40
2023-07-21T12:02:47.382Z,0.40
2023-07-21T12:05:20.347Z,0.40
2023-07-21T12:07:56.536Z,0.63
2023-07-21T12:10:29.085Z,0.60
2023-07-21T12:13:05.649Z,0.40
2023-07-21T12:15:38.987Z,0.30
2023-07-21T12:18:13.630Z,0.30
2023-07-21T12:20:46.516Z,0.38
2023-07-21T12:23:19.903Z,0.50
2023-07-21T12:25:53.613Z,1.10
2023-07-21T12:28:27.110Z,0.40
2023-07-21T12:30:59.915Z,0.35
2023-07-21T12:33:36.502Z,0.65
2023-07-21T12:36:11.107Z,0.45
2023-07-21T12:38:43.774Z,0.30
2023-07-21T12:41:18.811Z,0.33
2023-07-21T12:43:52.250Z,0.55
2023-07-21T12:46:25.870Z,0.40
2023-07-21T12:49:00.216Z,0.40
2023-07-21T12:51:33.044Z,0.30
2023-07-21T12:54:06.210Z,0.40
2023-07-21T12:56:38.966Z,0.50
2023-07-21T12:59:11.990Z,0.40
2023-07-21T13:01:45.151Z,0.60
2023-07-21T13:04:21.287Z,0.30
2023-07-21T13:06:55.618Z,0.70
2023-07-21T13:09:28.291Z,0.75
2023-07-21T13:12:01.372Z,0.60
2023-07-21T13:14:34.197Z,0.70
2023-07-21T13:17:08.245Z,0.40
2023-07-21T13:19:42.565Z,0.40
2023-07-21T13:22:15.786Z,0.40
2023-07-21T13:24:48.680Z,0.40
2023-07-21T13:27:22.597Z,0.50
2023-07-21T13:29:55.798Z,0.40
2023-07-21T13:32:28.346Z,0.40
2023-07-21T13:35:03.391Z,0.55
2023-07-21T13:37:37.018Z,0.60
2023-07-21T13:40:10.314Z,0.95
2023-07-21T13:42:42.898Z,0.68
2023-07-21T13:45:16.014Z,1.00
2023-07-21T13:47:49.049Z,0.32
2023-07-21T13:50:23.354Z,0.38
2023-07-21T13:52:55.891Z,0.40
2023-07-21T13:55:29.360Z,0.55
2023-07-21T13:58:02.959Z,0.80
2023-07-21T14:00:37.175Z,0.50
2023-07-21T14:03:09.861Z,0.25
2023-07-21T14:05:44.387Z,0.25
2023-07-21T14:08:17.126Z,0.63
2023-07-21T14:10:50.523Z,0.30
2023-07-21T14:13:23.205Z,0.47
2023-07-21T14:15:59.031Z,0.30
2023-07-21T14:18:35.089Z,0.30
2023-07-21T14:21:09.838Z,0.40
2023-07-21T14:23:42.772Z,0.47
2023-07-21T14:26:15.896Z,0.28
2023-07-21T14:28:48.942Z,0.98
2023-07-21T14:31:22.556Z,0.40
2023-07-21T14:33:55.435Z,0.30
2023-07-21T14:36:30.769Z,0.33
2023-07-21T14:39:06.333Z,0.40
2023-07-21T14:41:42.550Z,0.30
2023-07-21T14:44:16.444Z,1.65
2023-07-21T14:46:49.627Z,0.25
2023-07-21T14:49:23.158Z,0.30
2023-07-21T14:51:59.243Z,0.85
2023-07-21T14:54:32.197Z,0.30
2023-07-21T14:57:05.412Z,0.70
2023-07-21T14:59:38.441Z,0.30
2023-07-21T15:02:13.532Z,0.70
2023-07-21T15:04:47.000Z,0.60
2023-07-21T15:07:21.200Z,0.32
2023-07-21T15:09:54.166Z,0.28
2023-07-21T15:12:27.998Z,0.30
2023-07-21T15:15:01.322Z,0.60
2023-07-21T15:17:37.150Z,0.80
2023-07-21T15:20:18.114Z,0.82
2023-07-21T15:22:52.429Z,0.50
2023-07-21T15:25:26.004Z,0.38
2023-07-21T15:27:58.751Z,0.20
2023-07-21T15:30:32.340Z,0.52
2023-07-21T15:33:05.739Z,0.50
2023-07-21T15:35:45.915Z,0.45
2023-07-21T15:38:20.342Z,0.40
2023-07-21T15:40:53.512Z,0.50
2023-07-21T15:43:27.866Z,0.63
2023-07-21T15:46:00.602Z,0.47
2023-07-21T15:48:33.923Z,0.52
2023-07-21T15:51:06.994Z,0.30
2023-07-21T15:53:41.398Z,0.47
2023-07-21T15:56:14.448Z,0.40
2023-07-21T15:58:47.177Z,0.90
2023-07-21T16:01:19.748Z,0.47
2023-07-21T16:03:53.629Z,0.40
2023-07-21T16:06:26.556Z,0.40
2023-07-21T16:09:00.584Z,0.60
2023-07-21T16:11:33.584Z,0.40
2023-07-21T16:14:06.483Z,0.50
2023-07-21T16:16:40.245Z,0.40
2023-07-21T16:19:12.885Z,0.30
2023-07-21T16:21:46.497Z,0.30
2023-07-21T16:24:20.927Z,0.70
2023-07-21T16:26:54.214Z,0.68
2023-07-21T16:29:26.727Z,0.43
2023-07-21T16:31:59.816Z,0.63
2023-07-21T16:34:36.321Z,0.50
2023-07-21T16:37:11.133Z,0.70
2023-07-21T16:39:45.564Z,1.52
2023-07-21T16:42:19.581Z,0.40
2023-07-21T16:44:52.089Z,0.80
2023-07-21T16:47:25.238Z,0.60
2023-07-21T16:49:58.203Z,0.80
2023-07-21T16:52:31.123Z,0.82
2023-07-21T16:55:08.859Z,0.70
2023-07-21T16:57:41.740Z,1.20
2023-07-21T17:00:15.299Z,1.00
2023-07-21T17:02:48.508Z,0.95
2023-07-21T17:05:31.606Z,0.88
2023-07-21T17:08:06.015Z,1.17
2023-07-21T17:10:40.311Z,1.23
2023-07-21T17:13:13.184Z,2.30
2023-07-21T17:15:46.049Z,1.92
2023-07-21T17:18:19.449Z,1.15
2023-07-21T17:20:52.085Z,1.40
2023-07-21T17:23:25.359Z,1.17
2023-07-21T17:26:03.945Z,3.65
2023-07-21T17:28:37.410Z,1.10
2023-07-21T17:31:10.142Z,0.40
2023-07-21T17:33:43.565Z,0.40
2023-07-21T17:36:16.525Z,0.70
2023-07-21T17:38:49.261Z,0.50
2023-07-21T17:41:23.874Z,0.30
2023-07-21T17:43:58.109Z,0.20
2023-07-21T17:46:31.143Z,0.52
2023-07-21T17:49:04.565Z,6.80
2023-07-21T17:51:37.354Z,2.10
2023-07-21T17:54:10.367Z,1.83
2023-07-21T17:56:46.617Z,2.80
2023-07-21T17:59:22.784Z,1.13
2023-07-21T18:01:56.082Z,0.50
2023-07-21T18:04:28.839Z,0.52
2023-07-21T18:07:02.184Z,0.30
2023-07-21T18:09:35.316Z,0.47
2023-07-21T18:12:09.698Z,0.93
2023-07-21T18:14:43.003Z,0.40
2023-07-21T18:17:15.575Z,0.40
2023-07-21T18:19:52.071Z,0.50
2023-07-21T18:22:25.452Z,0.38
2023-07-21T18:25:00.149Z,0.40
2023-07-21T18:27:34.219Z,0.50
2023-07-21T18:30:10.948Z,0.50
2023-07-21T18:32:43.962Z,1.08
2023-07-21T18:35:17.891Z,0.50
2023-07-21T18:37:50.879Z,0.60
2023-07-21T18:40:26.771Z,0.80
2023-07-21T18:43:01.166Z,1.73
2023-07-21T18:45:34.305Z,1.80
2023-07-21T18:48:07.598Z,1.40
2023-07-21T18:50:42.380Z,1.23
2023-07-21T18:53:16.941Z,1.00
2023-07-21T18:55:50.423Z,1.10
2023-07-21T18:58:25.824Z,1.63
2023-07-21T19:01:00.009Z,2.47
2023-07-21T19:03:32.931Z,1.42
2023-07-21T19:06:07.941Z,2.00
2023-07-21T19:08:40.591Z,3.50
2023-07-21T19:11:17.660Z,4.22
2023-07-21T19:13:53.113Z,4.20
2023-07-21T19:16:31.383Z,3.13
2023-07-21T19:19:05.533Z,3.40
2023-07-21T19:21:38.391Z,2.58
2023-07-21T19:24:11.314Z,1.95
2023-07-21T19:26:44.842Z,2.38
2023-07-21T19:29:19.069Z,3.60
2023-07-21T19:31:53.864Z,2.23
2023-07-21T19:34:29.388Z,2.42
2023-07-21T19:37:02.652Z,5.78
2023-07-21T19:39:35.579Z,3.20
2023-07-21T19:42:08.645Z,2.47
2023-07-21T19:44:42.976Z,2.37
2023-07-21T19:47:16.348Z,2.60
2023-07-21T19:49:49.069Z,2.05
2023-07-21T19:52:22.019Z,2.47
2023-07-21T19:54:54.536Z,2.65
2023-07-21T19:57:28.020Z,2.33
2023-07-21T20:00:02.418Z,2.65
2023-07-21T20:02:38.290Z,2.17
2023-07-21T20:05:11.723Z,2.35
2023-07-21T20:07:44.745Z,2.22
2023-07-21T20:10:17.797Z,2.10
2023-07-21T20:12:51.734Z,1.17
2023-07-21T20:15:26.728Z,2.05
2023-07-21T20:17:59.935Z,0.90
2023-07-21T20:20:33.876Z,0.98
2023-07-21T20:23:06.642Z,0.93
2023-07-21T20:25:41.071Z,0.80
2023-07-21T20:28:17.395Z,0.88
2023-07-21T20:30:52.265Z,0.50
2023-07-21T20:33:25.188Z,0.57
2023-07-21T20:35:58.783Z,0.73
2023-07-21T20:38:32.803Z,0.40
2023-07-21T20:41:10.256Z,0.60
2023-07-21T20:43:43.277Z,0.30
2023-07-21T20:46:17.278Z,0.70
2023-07-21T20:48:50.312Z,1.13
2023-07-21T20:51:23.293Z,0.47
2023-07-21T20:53:56.570Z,0.38
2023-07-21T20:56:29.551Z,0.63
2023-07-21T20:59:03.193Z,0.82
2023-07-21T21:01:37.190Z,0.60
2023-07-21T21:04:14.720Z,0.50
2023-07-21T21:06:47.470Z,0.60
2023-07-21T21:09:20.444Z,0.82
2023-07-21T21:11:53.313Z,0.40
2023-07-21T21:14:26.309Z,0.33
2023-07-21T21:17:00.337Z,0.70
2023-07-21T21:19:35.065Z,0.52
2023-07-21T21:22:08.109Z,0.60
2023-07-21T21:24:41.364Z,0.82
2023-07-21T21:27:14.221Z,0.30
2023-07-21T21:29:47.220Z,0.50
2023-07-21T21:32:21.817Z,0.57
2023-07-21T21:34:54.725Z,0.60
2023-07-21T21:37:27.739Z,0.40
2023-07-21T21:40:00.730Z,0.70
2023-07-21T21:42:37.325Z,0.90
2023-07-21T21:45:10.822Z,0.28
2023-07-21T21:47:45.170Z,0.40
2023-07-21T21:50:17.840Z,0.30
2023-07-21T21:52:51.035Z,0.20
2023-07-21T21:55:23.729Z,0.40
2023-07-21T21:57:56.966Z,0.52
2023-07-21T22:00:29.517Z,0.30
2023-07-21T22:03:04.645Z,0.40
2023-07-21T22:05:37.791Z,0.60
2023-07-21T22:08:10.823Z,0.73
2023-07-21T22:10:43.638Z,0.40
2023-07-21T22:13:16.202Z,0.55
2023-07-21T22:15:49.425Z,0.88
2023-07-21T22:18:23.441Z,0.60
2023-07-21T22:20:56.485Z,0.50
2023-07-21T22:23:29.837Z,0.35
2023-07-21T22:26:06.566Z,0.20
2023-07-21T22:28:40.043Z,0.20
2023-07-21T22:31:14.236Z,0.47
2023-07-21T22:33:48.871Z,0.50
2023-07-21T22:36:23.424Z,0.60
2023-07-21T22:38:56.472Z,0.40
2023-07-21T22:41:30.783Z,1.30
2023-07-21T22:44:03.511Z,0.50
2023-07-21T22:46:36.864Z,0.30
2023-07-21T22:49:13.891Z,0.70
2023-07-21T22:51:46.418Z,0.30
2023-07-21T22:54:19.546Z,0.35
2023-07-21T22:56:52.551Z,0.20
2023-07-21T22:59:25.693Z,0.40
2023-07-21T23:01:58.289Z,0.35
2023-07-21T23:04:32.741Z,0.35
2023-07-21T23:07:06.211Z,0.40
2023-07-21T23:09:39.398Z,0.80
2023-07-21T23:12:11.920Z,0.50
2023-07-21T23:14:45.236Z,0.50
2023-07-21T23:17:17.834Z,0.30
2023-07-21T23:19:52.216Z,0.20
2023-07-21T23:22:24.891Z,0.57
2023-07-21T23:24:58.316Z,0.60
2023-07-21T23:27:32.499Z,0.30
2023-07-21T23:30:06.927Z,0.28
2023-07-21T23:32:40.053Z,0.28
2023-07-21T23:35:14.836Z,0.20
2023-07-21T23:37:48.072Z,0.20
2023-07-21T23:40:20.979Z,0.43
2023-07-21T23:42:54.028Z,0.55
2023-07-21T23:45:27.353Z,0.20
2023-07-21T23:47:59.987Z,0.20
2023-07-21T23:50:34.947Z,0.45
2023-07-21T23:53:07.756Z,0.77
2023-07-21T23:55:41.168Z,0.38
2023-07-21T23:58:16.415Z,0.60
